createdAt,value
2023-05-08T00:00:31.873Z,11.32
2023-05-08T00:01:31.471Z,12.35
2023-05-08T00:02:28.551Z,11.98
2023-05-08T00:03:25.789Z,12.52
2023-05-08T00:04:23.160Z,11.90
2023-05-08T00:05:20.251Z,11.80
2023-05-08T00:06:17.290Z,11.30
2023-05-08T00:07:14.273Z,11.95
2023-05-08T00:08:11.212Z,12.27
2023-05-08T00:09:08.191Z,12.13
2023-05-08T00:10:06.586Z,12.55
2023-05-08T00:11:03.590Z,12.68
2023-05-08T00:12:00.830Z,12.65
2023-05-08T00:12:57.991Z,13.38
2023-05-08T00:13:55.077Z,12.70
2023-05-08T00:14:52.108Z,12.27
2023-05-08T00:15:49.148Z,11.63
2023-05-08T00:16:46.357Z,12.52
2023-05-08T00:17:43.430Z,12.80
2023-05-08T00:18:40.694Z,11.07
2023-05-08T00:19:37.750Z,12.13
2023-05-08T00:20:34.822Z,12.70
2023-05-08T00:21:31.822Z,11.88
2023-05-08T00:22:28.833Z,11.68
2023-05-08T00:23:25.867Z,12.60
2023-05-08T00:24:22.840Z,13.07
2023-05-08T00:25:19.822Z,11.90
2023-05-08T00:26:16.829Z,12.40
2023-05-08T00:27:13.933Z,11.88
2023-05-08T00:28:10.942Z,11.43
2023-05-08T00:29:07.909Z,11.77
2023-05-08T00:30:06.458Z,10.70
2023-05-08T00:31:03.508Z,11.95
2023-05-08T00:32:01.284Z,11.40
2023-05-08T00:32:58.368Z,11.32
2023-05-08T00:33:55.378Z,11.70
2023-05-08T00:34:52.390Z,11.55
2023-05-08T00:35:49.446Z,12.13
2023-05-08T00:36:46.511Z,12.30
2023-05-08T00:37:44.029Z,11.55
2023-05-08T00:38:41.008Z,12.73
2023-05-08T00:39:37.989Z,11.88
2023-05-08T00:40:35.094Z,12.15
2023-05-08T00:41:32.037Z,11.52
2023-05-08T00:42:28.982Z,11.63
2023-05-08T00:43:28.587Z,12.15
2023-05-08T00:44:25.651Z,12.20
2023-05-08T00:45:22.617Z,11.85
2023-05-08T00:46:19.639Z,12.20
2023-05-08T00:47:16.727Z,13.20
2023-05-08T00:48:13.828Z,12.60
2023-05-08T00:49:13.439Z,12.93
2023-05-08T00:50:11.193Z,12.23
2023-05-08T00:51:09.861Z,12.00
2023-05-08T00:52:10.106Z,11.27
2023-05-08T00:53:08.224Z,8.95
2023-05-08T00:54:05.248Z,12.18
2023-05-08T00:55:03.397Z,11.82
2023-05-08T00:56:00.469Z,12.07
2023-05-08T00:56:57.565Z,13.18
2023-05-08T00:57:54.558Z,11.75
2023-05-08T00:58:51.756Z,12.07
2023-05-08T00:59:49.641Z,12.73
2023-05-08T01:00:47.375Z,12.60
2023-05-08T01:01:45.411Z,11.85
2023-05-08T01:02:42.598Z,12.13
2023-05-08T01:03:39.963Z,12.13
2023-05-08T01:04:37.456Z,13.10
2023-05-08T01:05:34.590Z,11.35
2023-05-08T01:06:32.078Z,12.32
2023-05-08T01:07:29.130Z,12.60
2023-05-08T01:08:26.152Z,12.82
2023-05-08T01:09:23.107Z,12.75
2023-05-08T01:10:20.174Z,12.90
2023-05-08T01:11:32.429Z,11.90
2023-05-08T01:12:48.417Z,12.10
2023-05-08T01:14:04.912Z,11.70
2023-05-08T01:15:17.696Z,12.20
2023-05-08T01:16:17.428Z,12.25
2023-05-08T01:17:41.416Z,13.02
2023-05-08T01:19:21.373Z,11.60
2023-05-08T01:20:39.631Z,11.32
2023-05-08T01:21:48.313Z,10.75
2023-05-08T01:23:06.712Z,11.40
2023-05-08T01:24:28.809Z,11.23
2023-05-08T01:25:32.111Z,11.75
2023-05-08T01:26:59.921Z,13.18
2023-05-08T01:28:27.538Z,12.85
2023-05-08T01:29:28.004Z,14.63
2023-05-08T01:30:42.976Z,15.75
2023-05-08T01:31:52.615Z,13.73
2023-05-08T01:33:03.240Z,13.75
2023-05-08T01:34:05.622Z,13.98
2023-05-08T01:35:31.853Z,14.87
2023-05-08T01:36:56.174Z,14.38
2023-05-08T01:38:13.057Z,14.77
2023-05-08T01:39:23.298Z,15.75
2023-05-08T01:40:29.420Z,14.18
2023-05-08T01:41:31.019Z,14.98
2023-05-08T01:42:44.615Z,16.35
2023-05-08T01:44:00.510Z,15.38
2023-05-08T01:45:01.214Z,14.65
2023-05-08T01:45:59.982Z,15.55
2023-05-08T01:46:57.672Z,15.60
2023-05-08T01:48:18.399Z,15.07
2023-05-08T01:49:41.417Z,15.63
2023-05-08T01:50:46.208Z,16.30
2023-05-08T01:51:49.133Z,15.70
2023-05-08T01:52:49.140Z,16.83
2023-05-08T01:53:50.295Z,16.15
2023-05-08T01:55:10.494Z,16.62
2023-05-08T01:56:14.490Z,17.25
2023-05-08T01:57:12.435Z,17.35
2023-05-08T01:58:11.314Z,16.75
2023-05-08T01:59:09.389Z,17.77
2023-05-08T02:00:08.191Z,16.60
2023-05-08T02:01:05.570Z,16.83
2023-05-08T02:02:03.197Z,17.67
2023-05-08T02:03:01.222Z,16.77
2023-05-08T02:03:59.377Z,17.92
2023-05-08T02:04:56.936Z,16.52
2023-05-08T02:05:55.933Z,15.52
2023-05-08T02:06:53.297Z,17.15
2023-05-08T02:07:51.712Z,16.17
2023-05-08T02:08:49.397Z,16.92
2023-05-08T02:09:46.616Z,16.35
2023-05-08T02:10:43.843Z,17.33
2023-05-08T02:11:43.074Z,16.73
2023-05-08T02:12:40.601Z,16.10
2023-05-08T02:13:39.553Z,16.20
2023-05-08T02:14:38.155Z,15.35
2023-05-08T02:15:36.932Z,15.93
2023-05-08T02:16:34.683Z,16.45
2023-05-08T02:17:32.535Z,16.85
2023-05-08T02:18:30.592Z,16.90
2023-05-08T02:19:29.694Z,15.88
2023-05-08T02:20:27.531Z,16.00
2023-05-08T02:21:25.203Z,16.70
2023-05-08T02:22:22.472Z,16.70
2023-05-08T02:23:21.635Z,16.17
2023-05-08T02:24:18.951Z,16.40
2023-05-08T02:25:16.775Z,15.32
2023-05-08T02:26:16.080Z,15.95
2023-05-08T02:27:13.729Z,16.67
2023-05-08T02:28:11.281Z,15.15
2023-05-08T02:29:09.231Z,15.45
2023-05-08T02:30:07.255Z,17.08
2023-05-08T02:31:05.824Z,14.95
2023-05-08T02:32:03.899Z,15.35
2023-05-08T02:33:01.655Z,16.17
2023-05-08T02:33:59.722Z,15.38
2023-05-08T02:35:03.093Z,16.20
2023-05-08T02:36:01.236Z,16.50
2023-05-08T02:36:58.661Z,15.63
2023-05-08T02:37:56.319Z,16.92
2023-05-08T02:38:54.695Z,16.27
2023-05-08T02:39:52.254Z,16.85
2023-05-08T02:40:53.281Z,16.77
2023-05-08T02:41:50.273Z,16.35
2023-05-08T02:42:47.412Z,17.75
2023-05-08T02:43:44.413Z,17.02
2023-05-08T02:44:41.534Z,17.77
2023-05-08T02:46:00.096Z,16.75
2023-05-08T02:47:01.011Z,16.73
2023-05-08T02:49:04.194Z,16.30
2023-05-08T02:50:15.751Z,16.25
2023-05-08T02:51:24.410Z,14.85
2023-05-08T02:52:38.678Z,16.23
2023-05-08T02:53:38.190Z,15.80
2023-05-08T02:54:58.261Z,15.10
2023-05-08T02:56:09.670Z,15.82
2023-05-08T02:57:19.428Z,15.50
2023-05-08T02:58:20.591Z,15.52
2023-05-08T02:59:20.898Z,15.55
2023-05-08T03:00:24.230Z,14.95
2023-05-08T03:01:33.972Z,15.38
2023-05-08T03:02:42.746Z,15.20
2023-05-08T03:03:42.699Z,15.52
2023-05-08T03:04:51.038Z,17.10
2023-05-08T03:05:52.971Z,15.40
2023-05-08T03:06:50.368Z,16.25
2023-05-08T03:07:51.547Z,15.40
2023-05-08T03:08:49.186Z,15.43
2023-05-08T03:09:49.589Z,15.25
2023-05-08T03:10:50.365Z,16.17
2023-05-08T03:12:47.718Z,15.07
2023-05-08T03:13:45.531Z,14.65
2023-05-08T03:14:49.373Z,16.30
2023-05-08T03:15:49.201Z,14.75
2023-05-08T03:16:46.747Z,15.13
2023-05-08T03:17:44.294Z,15.60
2023-05-08T03:18:52.766Z,15.05
2023-05-08T03:19:52.966Z,14.02
2023-05-08T03:20:54.876Z,14.87
2023-05-08T03:21:52.527Z,14.25
2023-05-08T03:22:50.149Z,15.20
2023-05-08T03:23:48.664Z,14.68
2023-05-08T03:24:47.046Z,14.25
2023-05-08T03:25:44.074Z,15.48
2023-05-08T03:26:41.176Z,14.57
2023-05-08T03:27:38.998Z,14.35
2023-05-08T03:28:37.464Z,14.93
2023-05-08T03:29:34.980Z,14.75
2023-05-08T03:30:32.449Z,14.25
2023-05-08T03:31:32.033Z,13.95
2023-05-08T03:32:33.258Z,14.20
2023-05-08T03:33:31.307Z,13.73
2023-05-08T03:34:29.397Z,14.43
2023-05-08T03:35:27.143Z,13.80
2023-05-08T03:36:27.171Z,13.93
2023-05-08T03:37:24.244Z,13.45
2023-05-08T03:38:22.565Z,14.13
2023-05-08T03:39:19.603Z,13.57
2023-05-08T03:40:16.975Z,14.10
2023-05-08T03:41:14.162Z,14.35
2023-05-08T03:42:11.604Z,14.18
2023-05-08T03:43:09.460Z,13.85
2023-05-08T03:44:10.203Z,13.62
2023-05-08T03:45:08.137Z,14.35
2023-05-08T03:46:11.457Z,13.45
2023-05-08T03:47:11.493Z,14.98
2023-05-08T03:48:09.516Z,13.70
2023-05-08T03:49:10.984Z,13.88
2023-05-08T03:50:09.578Z,13.18
2023-05-08T03:51:06.655Z,15.00
2023-05-08T03:52:04.100Z,13.27
2023-05-08T03:53:01.405Z,14.55
2023-05-08T03:53:58.431Z,13.70
2023-05-08T03:54:55.501Z,14.63
2023-05-08T03:55:52.468Z,13.27
2023-05-08T03:56:49.470Z,14.13
2023-05-08T03:58:14.613Z,14.93
2023-05-08T03:59:50.002Z,13.65
2023-05-08T04:01:00.481Z,13.40
2023-05-08T04:02:14.436Z,13.88
2023-05-08T04:03:51.231Z,13.27
2023-05-08T04:04:52.292Z,12.55
2023-05-08T04:06:04.074Z,13.32
2023-05-08T04:07:10.878Z,13.62
2023-05-08T04:08:30.162Z,12.95
2023-05-08T04:09:42.915Z,13.15
2023-05-08T04:10:53.940Z,13.45
2023-05-08T04:13:13.004Z,12.98
2023-05-08T04:14:14.089Z,13.30
2023-05-08T04:15:15.224Z,14.02
2023-05-08T04:16:27.368Z,13.52
2023-05-08T04:17:59.716Z,13.25
2023-05-08T04:19:03.777Z,13.73
2023-05-08T04:20:04.285Z,14.57
2023-05-08T04:21:02.236Z,14.60
2023-05-08T04:22:04.215Z,14.13
2023-05-08T04:23:01.517Z,13.88
2023-05-08T04:23:58.938Z,13.95
2023-05-08T04:24:59.329Z,13.10
2023-05-08T04:25:56.978Z,14.52
2023-05-08T04:26:54.218Z,13.73
2023-05-08T04:27:51.817Z,14.63
2023-05-08T04:28:49.339Z,13.65
2023-05-08T04:29:46.286Z,13.77
2023-05-08T04:30:43.309Z,13.65
2023-05-08T04:31:40.921Z,14.32
2023-05-08T04:32:40.928Z,13.43
2023-05-08T04:33:39.557Z,13.95
2023-05-08T04:34:37.178Z,14.18
2023-05-08T04:35:34.658Z,14.38
2023-05-08T04:36:34.094Z,14.15
2023-05-08T04:37:32.156Z,13.52
2023-05-08T04:38:29.120Z,13.85
2023-05-08T04:39:26.054Z,14.10
2023-05-08T04:40:23.076Z,13.60
2023-05-08T04:41:20.107Z,13.18
2023-05-08T04:42:17.082Z,13.85
2023-05-08T04:43:14.125Z,13.48
2023-05-08T04:44:12.014Z,12.88
2023-05-08T04:45:10.024Z,13.13
2023-05-08T04:46:07.292Z,13.52
2023-05-08T04:47:04.399Z,12.75
2023-05-08T04:48:01.572Z,12.88
2023-05-08T04:48:58.529Z,13.40
2023-05-08T04:49:55.436Z,12.57
2023-05-08T04:50:52.482Z,12.55
2023-05-08T04:51:49.441Z,12.15
2023-05-08T04:52:46.376Z,12.63
2023-05-08T04:53:43.386Z,12.18
2023-05-08T04:54:40.361Z,12.18
2023-05-08T04:55:37.308Z,11.98
2023-05-08T04:56:34.354Z,12.45
2023-05-08T04:57:31.415Z,12.65
2023-05-08T04:58:29.220Z,11.23
2023-05-08T04:59:26.302Z,12.02
2023-05-08T05:00:23.368Z,10.93
2023-05-08T05:01:20.339Z,11.15
2023-05-08T05:02:17.336Z,11.27
2023-05-08T05:03:14.529Z,12.07
2023-05-08T05:04:11.721Z,12.00
2023-05-08T05:05:09.043Z,10.85
2023-05-08T05:06:06.075Z,11.20
2023-05-08T05:07:03.736Z,11.35
2023-05-08T05:08:00.729Z,11.43
2023-05-08T05:08:57.712Z,10.88
2023-05-08T05:09:54.740Z,11.00
2023-05-08T05:10:51.882Z,10.98
2023-05-08T05:11:48.797Z,11.12
2023-05-08T05:12:45.796Z,10.80
2023-05-08T05:13:42.773Z,11.12
2023-05-08T05:14:39.694Z,11.90
2023-05-08T05:15:36.663Z,11.02
2023-05-08T05:16:33.970Z,11.65
2023-05-08T05:17:31.685Z,11.48
2023-05-08T05:18:28.744Z,11.95
2023-05-08T05:19:25.838Z,11.88
2023-05-08T05:20:22.782Z,11.12
2023-05-08T05:21:21.881Z,11.35
2023-05-08T05:22:18.857Z,11.12
2023-05-08T05:23:15.893Z,11.10
2023-05-08T05:24:12.980Z,11.52
2023-05-08T05:25:10.401Z,10.60
2023-05-08T05:26:07.435Z,11.10
2023-05-08T05:27:04.878Z,11.07
2023-05-08T05:28:02.309Z,11.25
2023-05-08T05:28:59.393Z,10.75
2023-05-08T05:29:56.352Z,10.65
2023-05-08T05:30:53.533Z,10.88
2023-05-08T05:31:50.524Z,11.70
2023-05-08T05:32:47.993Z,11.20
2023-05-08T05:33:44.953Z,11.52
2023-05-08T05:34:42.193Z,11.65
2023-05-08T05:35:39.153Z,12.10
2023-05-08T05:36:36.335Z,11.75
2023-05-08T05:37:33.371Z,11.07
2023-05-08T05:38:30.371Z,11.23
2023-05-08T05:39:27.330Z,11.77
2023-05-08T05:40:24.291Z,11.52
2023-05-08T05:41:22.468Z,11.32
2023-05-08T05:42:19.530Z,11.73
2023-05-08T05:43:16.488Z,11.00
2023-05-08T05:44:13.441Z,11.57
2023-05-08T05:45:10.863Z,11.75
2023-05-08T05:46:09.273Z,11.85
2023-05-08T05:47:06.813Z,11.55
2023-05-08T05:48:07.532Z,11.63
2023-05-08T05:49:12.950Z,11.30
2023-05-08T05:50:11.227Z,11.25
2023-05-08T05:51:08.436Z,11.20
2023-05-08T05:52:05.788Z,11.68
2023-05-08T05:53:02.708Z,11.50
2023-05-08T05:54:01.290Z,11.32
2023-05-08T05:54:58.590Z,10.70
2023-05-08T05:55:55.595Z,11.05
2023-05-08T05:56:52.510Z,10.70
2023-05-08T05:57:49.684Z,10.90
2023-05-08T05:58:46.628Z,11.35
2023-05-08T05:59:43.690Z,11.45
2023-05-08T06:00:41.787Z,11.30
2023-05-08T06:01:39.625Z,11.23
2023-05-08T06:02:37.362Z,10.57
2023-05-08T06:03:35.122Z,10.95
2023-05-08T06:04:32.329Z,10.73
2023-05-08T06:05:30.057Z,10.65
2023-05-08T06:06:27.511Z,10.05
2023-05-08T06:07:25.029Z,10.40
2023-05-08T06:08:23.712Z,11.73
2023-05-08T06:09:21.498Z,11.20
2023-05-08T06:10:18.844Z,10.00
2023-05-08T06:11:16.267Z,11.15
2023-05-08T06:12:19.454Z,10.35
2023-05-08T06:13:16.751Z,9.60
2023-05-08T06:14:13.854Z,9.98
2023-05-08T06:15:11.654Z,9.32
2023-05-08T06:16:08.938Z,9.52
2023-05-08T06:17:05.977Z,9.20
2023-05-08T06:18:03.208Z,9.48
2023-05-08T06:19:00.231Z,9.25
2023-05-08T06:19:57.133Z,10.25
2023-05-08T06:21:00.696Z,8.70
2023-05-08T06:21:57.668Z,9.27
2023-05-08T06:22:54.658Z,9.40
2023-05-08T06:23:51.614Z,9.13
2023-05-08T06:24:48.922Z,9.50
2023-05-08T06:25:45.878Z,9.35
2023-05-08T06:26:42.913Z,9.75
2023-05-08T06:27:39.942Z,9.30
2023-05-08T06:28:36.890Z,9.32
2023-05-08T06:29:33.817Z,8.98
2023-05-08T06:30:30.851Z,8.88
2023-05-08T06:31:27.838Z,9.27
2023-05-08T06:32:24.989Z,9.77
2023-05-08T06:33:22.838Z,8.80
2023-05-08T06:34:20.591Z,9.30
2023-05-08T06:35:20.395Z,9.55
2023-05-08T06:36:17.379Z,8.80
2023-05-08T06:37:14.374Z,9.57
2023-05-08T06:38:11.332Z,9.38
2023-05-08T06:39:08.434Z,8.95
2023-05-08T06:40:11.949Z,9.55
2023-05-08T06:41:09.690Z,9.45
2023-05-08T06:42:08.019Z,9.13
2023-05-08T06:43:06.087Z,9.68
2023-05-08T06:44:03.271Z,9.75
2023-05-08T06:45:00.297Z,9.57
2023-05-08T06:45:57.311Z,9.48
2023-05-08T06:46:55.542Z,9.52
2023-05-08T06:47:52.640Z,9.52
2023-05-08T06:48:49.722Z,9.05
2023-05-08T06:49:46.858Z,9.50
2023-05-08T06:50:43.881Z,9.90
2023-05-08T06:51:40.939Z,9.35
2023-05-08T06:52:38.243Z,9.88
2023-05-08T06:53:35.272Z,9.23
2023-05-08T06:54:32.272Z,9.63
2023-05-08T06:55:29.236Z,9.73
2023-05-08T06:56:26.814Z,10.02
2023-05-08T06:57:26.547Z,9.85
2023-05-08T06:58:23.552Z,10.50
2023-05-08T06:59:21.614Z,11.02
2023-05-08T07:00:18.727Z,10.57
2023-05-08T07:01:15.721Z,10.00
2023-05-08T07:02:13.240Z,9.93
2023-05-08T07:03:10.401Z,10.13
2023-05-08T07:04:07.423Z,10.23
2023-05-08T07:05:04.790Z,10.00
2023-05-08T07:06:02.102Z,9.57
2023-05-08T07:06:59.038Z,9.65
2023-05-08T07:07:56.075Z,9.40
2023-05-08T07:08:53.016Z,10.20
2023-05-08T07:09:49.936Z,10.50
2023-05-08T07:10:46.998Z,9.77
2023-05-08T07:11:44.057Z,10.13
2023-05-08T07:12:41.400Z,10.35
2023-05-08T07:13:38.753Z,9.85
2023-05-08T07:14:35.854Z,9.90
2023-05-08T07:15:32.838Z,9.68
2023-05-08T07:16:29.947Z,9.98
2023-05-08T07:17:27.129Z,9.68
2023-05-08T07:18:24.268Z,9.98
2023-05-08T07:19:22.527Z,10.38
2023-05-08T07:20:19.756Z,9.15
2023-05-08T07:21:18.952Z,9.93
2023-05-08T07:22:16.026Z,10.60
2023-05-08T07:23:13.018Z,10.13
2023-05-08T07:24:09.956Z,9.98
2023-05-08T07:25:07.594Z,9.55
2023-05-08T07:26:04.622Z,9.70
2023-05-08T07:27:01.624Z,9.65
2023-05-08T07:28:00.543Z,9.88
2023-05-08T07:28:58.315Z,9.55
2023-05-08T07:29:55.307Z,10.00
2023-05-08T07:30:52.432Z,9.65
2023-05-08T07:31:49.508Z,9.57
2023-05-08T07:32:46.803Z,9.20
2023-05-08T07:33:43.954Z,9.68
2023-05-08T07:34:40.958Z,10.07
2023-05-08T07:35:41.340Z,9.73
2023-05-08T07:36:38.945Z,9.48
2023-05-08T07:37:35.871Z,9.57
2023-05-08T07:38:32.915Z,9.95
2023-05-08T07:39:30.017Z,9.60
2023-05-08T07:40:26.989Z,9.70
2023-05-08T07:41:24.773Z,9.68
2023-05-08T07:42:22.798Z,9.88
2023-05-08T07:43:20.003Z,10.07
2023-05-08T07:44:16.968Z,10.15
2023-05-08T07:45:14.488Z,9.65
2023-05-08T07:46:17.348Z,10.27
2023-05-08T07:47:14.487Z,10.05
2023-05-08T07:48:12.144Z,10.48
2023-05-08T07:49:09.127Z,9.77
2023-05-08T07:50:06.714Z,10.05
2023-05-08T07:51:03.992Z,9.55
2023-05-08T07:52:00.949Z,9.60
2023-05-08T07:52:58.230Z,9.93
2023-05-08T07:53:55.401Z,9.38
2023-05-08T07:54:52.409Z,10.50
2023-05-08T07:55:49.348Z,9.65
2023-05-08T07:56:46.347Z,9.95
2023-05-08T07:57:44.286Z,9.45
2023-05-08T07:58:42.878Z,10.02
2023-05-08T07:59:39.825Z,9.95
2023-05-08T08:00:36.869Z,10.13
2023-05-08T08:01:34.214Z,9.70
2023-05-08T08:02:31.186Z,10.57
2023-05-08T08:03:28.444Z,9.55
2023-05-08T08:04:25.585Z,9.95
2023-05-08T08:05:22.648Z,10.02
2023-05-08T08:06:19.588Z,10.10
2023-05-08T08:07:16.574Z,9.65
2023-05-08T08:08:13.532Z,10.23
2023-05-08T08:09:10.648Z,9.80
2023-05-08T08:10:08.772Z,9.32
2023-05-08T08:11:06.756Z,10.23
2023-05-08T08:12:03.849Z,10.50
2023-05-08T08:13:04.709Z,10.40
2023-05-08T08:14:01.772Z,10.27
2023-05-08T08:14:58.669Z,10.15
2023-05-08T08:15:55.688Z,10.63
2023-05-08T08:16:52.749Z,10.25
2023-05-08T08:17:49.863Z,10.07
2023-05-08T08:18:46.871Z,9.77
2023-05-08T08:19:44.030Z,10.35
2023-05-08T08:20:41.022Z,10.10
2023-05-08T08:21:43.626Z,11.55
2023-05-08T08:22:40.649Z,10.73
2023-05-08T08:23:37.918Z,10.80
2023-05-08T08:24:34.871Z,10.82
2023-05-08T08:25:32.150Z,10.02
2023-05-08T08:26:29.157Z,10.90
2023-05-08T08:27:26.234Z,11.07
2023-05-08T08:28:23.240Z,11.57
2023-05-08T08:29:20.228Z,10.70
2023-05-08T08:30:18.525Z,11.07
2023-05-08T08:31:16.669Z,10.85
2023-05-08T08:32:13.697Z,10.70
2023-05-08T08:33:10.843Z,11.15
2023-05-08T08:34:07.964Z,11.12
2023-05-08T08:35:05.209Z,10.68
2023-05-08T08:36:02.230Z,11.27
2023-05-08T08:36:59.190Z,11.00
2023-05-08T08:37:59.109Z,10.60
2023-05-08T08:38:56.086Z,10.65
2023-05-08T08:39:53.420Z,10.85
2023-05-08T08:40:50.522Z,11.05
2023-05-08T08:41:47.694Z,11.07
2023-05-08T08:42:44.691Z,11.95
2023-05-08T08:43:43.689Z,10.80
2023-05-08T08:44:40.751Z,10.98
2023-05-08T08:45:38.270Z,11.63
2023-05-08T08:46:35.873Z,11.18
2023-05-08T08:47:41.652Z,11.07
2023-05-08T08:48:46.150Z,12.13
2023-05-08T08:49:50.048Z,11.27
2023-05-08T08:50:49.123Z,11.23
2023-05-08T08:51:54.809Z,11.18
2023-05-08T08:53:17.462Z,11.82
2023-05-08T08:54:14.951Z,11.90
2023-05-08T08:55:16.921Z,11.82
2023-05-08T08:56:14.911Z,11.90
2023-05-08T08:57:13.254Z,11.50
2023-05-08T08:58:18.807Z,11.65
2023-05-08T08:59:17.333Z,11.75
2023-05-08T09:00:15.045Z,11.82
2023-05-08T09:01:15.932Z,12.05
2023-05-08T09:02:17.875Z,13.00
2023-05-08T09:03:15.449Z,12.43
2023-05-08T09:04:13.289Z,11.73
2023-05-08T09:05:10.655Z,12.25
2023-05-08T09:06:08.069Z,12.37
2023-05-08T09:07:05.883Z,12.15
2023-05-08T09:08:03.253Z,11.55
2023-05-08T09:09:00.510Z,11.68
2023-05-08T09:09:57.552Z,11.93
2023-05-08T09:10:56.553Z,11.63
2023-05-08T09:11:53.911Z,11.63
2023-05-08T09:12:51.031Z,11.82
2023-05-08T09:13:48.052Z,11.30
2023-05-08T09:14:45.049Z,12.15
2023-05-08T09:15:42.124Z,11.98
2023-05-08T09:16:40.251Z,12.40
2023-05-08T09:17:37.382Z,12.07
2023-05-08T09:18:34.433Z,11.82
2023-05-08T09:19:32.036Z,12.32
2023-05-08T09:20:29.454Z,11.32
2023-05-08T09:21:27.561Z,11.77
2023-05-08T09:22:25.456Z,12.13
2023-05-08T09:23:25.474Z,12.02
2023-05-08T09:24:23.811Z,12.18
2023-05-08T09:25:20.914Z,11.35
2023-05-08T09:26:39.309Z,12.00
2023-05-08T09:27:37.075Z,12.55
2023-05-08T09:28:34.143Z,11.20
2023-05-08T09:29:31.289Z,11.50
2023-05-08T09:30:28.355Z,11.68
2023-05-08T09:31:35.470Z,11.23
2023-05-08T09:32:34.095Z,11.27
2023-05-08T09:33:31.517Z,10.95
2023-05-08T09:34:29.805Z,10.43
2023-05-08T09:35:36.760Z,10.70
2023-05-08T09:36:34.959Z,11.02
2023-05-08T09:37:32.257Z,10.18
2023-05-08T09:38:34.173Z,10.02
2023-05-08T09:39:31.169Z,9.63
2023-05-08T09:40:28.180Z,10.15
2023-05-08T09:41:25.128Z,10.95
2023-05-08T09:42:23.706Z,10.02
2023-05-08T09:43:20.730Z,10.10
2023-05-08T09:44:17.692Z,10.50
2023-05-08T09:45:32.024Z,10.60
2023-05-08T09:46:29.630Z,9.80
2023-05-08T09:47:26.658Z,9.60
2023-05-08T09:48:37.951Z,9.95
2023-05-08T09:49:34.888Z,9.38
2023-05-08T09:50:33.390Z,10.10
2023-05-08T09:51:32.383Z,9.70
2023-05-08T09:52:30.857Z,9.55
2023-05-08T09:53:33.980Z,9.75
2023-05-08T09:54:31.055Z,9.68
2023-05-08T09:55:28.050Z,10.15
2023-05-08T09:56:39.363Z,11.15
2023-05-08T09:57:39.664Z,10.70
2023-05-08T09:58:43.894Z,10.40
2023-05-08T09:59:40.970Z,11.35
2023-05-08T10:00:39.390Z,10.57
2023-05-08T10:01:37.306Z,10.90
2023-05-08T10:02:35.266Z,11.02
2023-05-08T10:03:49.076Z,11.43
2023-05-08T10:04:46.577Z,10.90
2023-05-08T10:05:43.853Z,11.50
2023-05-08T10:06:41.251Z,10.98
2023-05-08T10:07:38.230Z,11.70
2023-05-08T10:08:35.216Z,11.75
2023-05-08T10:09:46.950Z,11.85
2023-05-08T10:10:47.673Z,11.15
2023-05-08T10:11:52.544Z,12.02
2023-05-08T10:12:49.646Z,12.18
2023-05-08T10:13:47.130Z,11.60
2023-05-08T10:14:46.486Z,11.52
2023-05-08T10:15:45.030Z,12.15
2023-05-08T10:16:46.701Z,12.07
2023-05-08T10:18:11.290Z,12.18
2023-05-08T10:19:14.193Z,11.38
2023-05-08T10:20:12.050Z,11.40
2023-05-08T10:21:09.601Z,10.98
2023-05-08T10:22:08.102Z,11.88
2023-05-08T10:23:07.749Z,11.65
2023-05-08T10:24:06.451Z,11.65
2023-05-08T10:25:05.357Z,11.85
2023-05-08T10:26:09.430Z,11.70
2023-05-08T10:27:21.266Z,11.23
2023-05-08T10:28:33.303Z,13.70
2023-05-08T10:29:42.257Z,10.95
2023-05-08T10:30:44.944Z,11.60
2023-05-08T10:31:44.373Z,14.10
2023-05-08T10:32:44.527Z,12.25
2023-05-08T10:33:42.153Z,10.80
2023-05-08T10:34:41.394Z,11.35
2023-05-08T10:35:38.372Z,10.90
2023-05-08T10:36:36.296Z,11.07
2023-05-08T10:37:34.092Z,12.45
2023-05-08T10:38:31.532Z,12.18
2023-05-08T10:39:29.655Z,11.98
2023-05-08T10:40:26.674Z,11.90
2023-05-08T10:41:23.660Z,12.43
2023-05-08T10:42:20.996Z,11.88
2023-05-08T10:43:18.003Z,12.60
2023-05-08T10:44:15.252Z,12.15
2023-05-08T10:45:12.627Z,12.98
2023-05-08T10:46:36.815Z,12.98
2023-05-08T10:47:34.402Z,13.40
2023-05-08T10:48:59.173Z,16.10
2023-05-08T10:50:16.428Z,12.60
2023-05-08T10:51:35.578Z,12.35
2023-05-08T10:52:37.161Z,11.80
2023-05-08T10:53:45.007Z,11.40
2023-05-08T10:55:06.446Z,11.95
2023-05-08T10:56:03.692Z,11.57
2023-05-08T10:57:13.113Z,11.75
2023-05-08T10:58:30.538Z,11.75
2023-05-08T10:59:30.213Z,10.68
2023-05-08T11:00:32.472Z,11.85
2023-05-08T11:01:29.532Z,10.85
2023-05-08T11:02:29.238Z,11.30
2023-05-08T11:03:32.562Z,11.40
2023-05-08T11:04:30.415Z,10.95
2023-05-08T11:05:28.950Z,11.00
2023-05-08T11:06:55.534Z,11.48
2023-05-08T11:07:55.215Z,11.23
2023-05-08T11:08:55.730Z,11.23
2023-05-08T11:09:52.697Z,11.30
2023-05-08T11:10:53.518Z,10.50
2023-05-08T11:12:17.646Z,10.50
2023-05-08T11:13:15.334Z,10.65
2023-05-08T11:14:14.632Z,10.27
2023-05-08T11:15:11.661Z,10.25
2023-05-08T11:16:11.311Z,10.32
2023-05-08T11:17:09.671Z,9.77
2023-05-08T11:18:10.062Z,10.13
2023-05-08T11:19:17.457Z,10.27
2023-05-08T11:20:15.023Z,10.48
2023-05-08T11:21:16.415Z,9.55
2023-05-08T11:22:22.186Z,12.43
2023-05-08T11:23:26.375Z,13.05
2023-05-08T11:24:35.088Z,11.50
2023-05-08T11:26:04.414Z,10.32
2023-05-08T11:27:01.350Z,9.20
2023-05-08T11:28:04.554Z,10.00
2023-05-08T11:29:01.958Z,9.45
2023-05-08T11:30:37.387Z,9.88
2023-05-08T11:31:50.675Z,9.13
2023-05-08T11:33:17.508Z,9.88
2023-05-08T11:34:42.731Z,9.52
2023-05-08T11:35:57.308Z,9.32
2023-05-08T11:37:03.157Z,8.95
2023-05-08T11:38:33.186Z,9.65
2023-05-08T11:39:30.153Z,9.65
2023-05-08T11:40:49.698Z,9.50
2023-05-08T11:41:48.188Z,8.80
2023-05-08T11:42:45.187Z,8.60
2023-05-08T11:44:09.645Z,9.85
2023-05-08T11:45:13.269Z,9.38
2023-05-08T11:46:18.254Z,9.50
2023-05-08T11:47:19.232Z,9.23
2023-05-08T11:48:17.069Z,9.48
2023-05-08T11:49:18.977Z,9.43
2023-05-08T11:50:18.654Z,9.18
2023-05-08T11:51:19.576Z,8.27
2023-05-08T11:52:19.028Z,9.15
2023-05-08T11:53:16.017Z,8.93
2023-05-08T11:54:18.325Z,9.95
2023-05-08T11:55:16.006Z,9.55
2023-05-08T11:56:13.048Z,9.25
2023-05-08T11:57:10.076Z,8.38
2023-05-08T11:58:13.828Z,8.88
2023-05-08T11:59:11.643Z,8.80
2023-05-08T12:00:10.236Z,9.30
2023-05-08T12:01:07.873Z,9.73
2023-05-08T12:02:08.976Z,10.68
2023-05-08T12:03:07.871Z,10.35
2023-05-08T12:04:09.597Z,9.93
2023-05-08T12:05:08.094Z,9.88
2023-05-08T12:06:05.467Z,9.68
2023-05-08T12:07:02.550Z,8.23
2023-05-08T12:08:00.253Z,10.25
2023-05-08T12:08:57.275Z,9.65
2023-05-08T12:09:54.289Z,8.40
2023-05-08T12:10:55.699Z,9.52
2023-05-08T12:11:57.549Z,9.35
2023-05-08T12:12:54.552Z,10.32
2023-05-08T12:13:52.651Z,9.23
2023-05-08T12:14:51.416Z,9.85
2023-05-08T12:15:54.256Z,9.77
2023-05-08T12:16:51.693Z,10.15
2023-05-08T12:17:48.957Z,9.73
2023-05-08T12:18:45.911Z,9.68
2023-05-08T12:19:42.888Z,9.85
2023-05-08T12:20:39.977Z,9.40
2023-05-08T12:21:36.935Z,10.15
2023-05-08T12:22:33.888Z,9.77
2023-05-08T12:23:31.230Z,10.10
2023-05-08T12:24:28.174Z,9.68
2023-05-08T12:25:26.150Z,9.85
2023-05-08T12:26:23.209Z,9.38
2023-05-08T12:27:20.280Z,9.32
2023-05-08T12:28:17.250Z,9.82
2023-05-08T12:29:14.268Z,10.75
2023-05-08T12:30:13.400Z,9.00
2023-05-08T12:31:10.736Z,9.15
2023-05-08T12:32:07.784Z,8.88
2023-05-08T12:33:05.515Z,9.45
2023-05-08T12:34:04.710Z,8.80
2023-05-08T12:35:01.720Z,9.25
2023-05-08T12:35:58.774Z,8.52
2023-05-08T12:37:03.416Z,8.15
2023-05-08T12:38:04.178Z,9.27
2023-05-08T12:40:26.033Z,8.20
2023-05-08T12:41:26.670Z,8.32
2023-05-08T12:43:20.495Z,8.32
2023-05-08T12:44:23.150Z,7.62
2023-05-08T12:45:28.466Z,8.95
2023-05-08T12:46:25.565Z,8.10
2023-05-08T12:47:22.505Z,8.30
2023-05-08T12:48:19.833Z,8.45
2023-05-08T12:49:32.668Z,8.15
2023-05-08T12:50:30.937Z,9.10
2023-05-08T12:51:31.627Z,9.50
2023-05-08T12:53:25.517Z,9.63
2023-05-08T12:54:32.676Z,10.73
2023-05-08T12:55:31.154Z,10.02
2023-05-08T12:56:28.092Z,9.02
2023-05-08T12:57:25.392Z,10.02
2023-05-08T12:58:30.689Z,9.30
2023-05-08T12:59:34.935Z,10.45
2023-05-08T13:00:52.589Z,10.13
2023-05-08T13:01:52.891Z,10.23
2023-05-08T13:02:55.077Z,9.00
2023-05-08T13:04:01.674Z,10.07
2023-05-08T13:04:59.685Z,9.57
2023-05-08T13:05:58.398Z,9.30
2023-05-08T13:06:56.702Z,9.02
2023-05-08T13:08:00.074Z,9.88
2023-05-08T13:08:57.137Z,9.23